Time,TemperatureF,DewpointF,PressureIn,WindDirection,WindDirectionDegrees,WindSpeedMPH,WindSpeedGustMPH,Humidity,HourlyPrecipIn,Conditions,Clouds,dailyrainin,SoftwareType,DateUTC
2013-03-16 00:13:00,35.0,-99.9,-100.00,NE,50,6.0,6.0,-999,-99.99,,,-99.99,,2013-03-16 04:13:00,
2013-03-16 00:23:00,35.0,-99.9,-100.00,NE,50,6.0,6.0,-999,-99.99,,,-99.99,,2013-03-16 04:23:00,
2013-03-16 00:33:00,35.0,-99.9,-100.00,NE,50,6.0,6.0,-999,-99.99,,,-99.99,,2013-03-16 04:33:00,
2013-03-16 00:43:00,35.0,-99.9,-100.00,NE,50,6.0,6.0,-999,-99.99,,,-99.99,,2013-03-16 04:43:00,
2013-03-16 01:12:00,34.0,-99.9,-100.00,ENE,70,10.0,11.0,-999,-99.99,,,-99.99,,2013-03-16 05:12:00,
2013-03-16 01:22:00,34.0,-99.9,-100.00,ENE,70,10.0,11.0,-999,-99.99,,,-99.99,,2013-03-16 05:22:00,
2013-03-16 01:32:00,34.0,-99.9,-100.00,ENE,70,10.0,11.0,-999,-99.99,,,-99.99,,2013-03-16 05:32:00,
2013-03-16 01:42:00,34.0,-99.9,-100.00,ENE,70,10.0,11.0,-999,-99.99,,,-99.99,,2013-03-16 05:42:00,
2013-03-16 02:12:00,34.0,-99.9,-100.00,ENE,60,14.0,15.0,-999,-99.99,,,-99.99,,2013-03-16 06:12:00,
2013-03-16 02:22:00,34.0,-99.9,-100.00,ENE,60,14.0,15.0,-999,-99.99,,,-99.99,,2013-03-16 06:22:00,
2013-03-16 02:33:00,34.0,-99.9,-100.00,ENE,60,14.0,15.0,-999,-99.99,,,-99.99,,2013-03-16 06:33:00,
2013-03-16 02:42:00,34.0,-99.9,-100.00,ENE,60,14.0,15.0,-999,-99.99,,,-99.99,,2013-03-16 06:42:00,
2013-03-16 03:12:00,33.0,-99.9,-100.00,NE,40,11.0,13.0,-999,-99.99,,,-99.99,,2013-03-16 07:12:00,
2013-03-16 03:22:00,33.0,-99.9,-100.00,NE,40,11.0,13.0,-999,-99.99,,,-99.99,,2013-03-16 07:22:00,
2013-03-16 03:32:00,33.0,-99.9,-100.00,NE,40,11.0,13.0,-999,-99.99,,,-99.99,,2013-03-16 07:32:00,
2013-03-16 03:42:00,33.0,-99.9,-100.00,NE,40,11.0,13.0,-999,-99.99,,,-99.99,,2013-03-16 07:42:00,
2013-03-16 04:12:00,32.0,-99.9,-100.00,NNE,30,24.0,28.0,-999,-99.99,,,-99.99,,2013-03-16 08:12:00,
2013-03-16 04:23:00,32.0,-99.9,-100.00,NNE,30,24.0,28.0,-999,-99.99,,,-99.99,,2013-03-16 08:23:00,
2013-03-16 04:33:00,32.0,-99.9,-100.00,NNE,30,24.0,28.0,-999,-99.99,,,-99.99,,2013-03-16 08:33:00,
2013-03-16 04:43:00,32.0,-99.9,-100.00,NNE,30,24.0,28.0,-999,-99.99,,,-99.99,,2013-03-16 08:43:00,
2013-03-16 05:12:00,31.0,-99.9,-100.00,NNE,20,18.0,21.0,-999,-99.99,,,-99.99,,2013-03-16 09:12:00,
2013-03-16 05:22:00,31.0,-99.9,-100.00,NNE,20,18.0,21.0,-999,-99.99,,,-99.99,,2013-03-16 09:22:00,
2013-03-16 05:33:00,31.0,-99.9,-100.00,NNE,20,18.0,21.0,-999,-99.99,,,-99.99,,2013-03-16 09:33:00,
2013-03-16 05:43:00,31.0,-99.9,-100.00,NNE,20,18.0,21.0,-999,-99.99,,,-99.99,,2013-03-16 09:43:00,
2013-03-16 06:12:00,31.0,-99.9,-100.00,NNE,20,23.0,24.0,-999,-99.99,,,-99.99,,2013-03-16 10:12:00,
2013-03-16 06:23:00,31.0,-99.9,-100.00,NNE,20,23.0,24.0,-999,-99.99,,,-99.99,,2013-03-16 10:23:00,
2013-03-16 06:33:00,31.0,-99.9,-100.00,NNE,20,23.0,24.0,-999,-99.99,,,-99.99,,2013-03-16 10:33:00,
2013-03-16 06:42:00,31.0,-99.9,-100.00,NNE,20,23.0,24.0,-999,-99.99,,,-99.99,,2013-03-16 10:42:00,
2013-03-16 07:12:00,31.0,-99.9,-100.00,NNE,30,26.0,30.0,-999,-99.99,,,-99.99,,2013-03-16 11:12:00,
2013-03-16 07:22:00,31.0,-99.9,-100.00,NNE,30,26.0,30.0,-999,-99.99,,,-99.99,,2013-03-16 11:22:00,
2013-03-16 07:33:00,31.0,-99.9,-100.00,NNE,30,26.0,30.0,-999,-99.99,,,-99.99,,2013-03-16 11:33:00,
2013-03-16 07:43:00,31.0,-99.9,-100.00,NNE,30,26.0,30.0,-999,-99.99,,,-99.99,,2013-03-16 11:43:00,
2013-03-16 08:12:00,31.0,-99.9,-100.00,NE,40,31.0,33.0,-999,-99.99,,,-99.99,,2013-03-16 12:12:00,
2013-03-16 08:23:00,31.0,-99.9,-100.00,NE,40,31.0,33.0,-999,-99.99,,,-99.99,,2013-03-16 12:23:00,
2013-03-16 08:32:00,31.0,-99.9,-100.00,NE,40,31.0,33.0,-999,-99.99,,,-99.99,,2013-03-16 12:32:00,
2013-03-16 08:43:00,31.0,-99.9,-100.00,NE,40,31.0,33.0,-999,-99.99,,,-99.99,,2013-03-16 12:43:00,
2013-03-16 09:12:00,30.0,-99.9,-100.00,NE,40,28.0,30.0,-999,-99.99,,,-99.99,,2013-03-16 13:12:00,
2013-03-16 09:23:00,30.0,-99.9,-100.00,NE,40,28.0,30.0,-999,-99.99,,,-99.99,,2013-03-16 13:23:00,
2013-03-16 09:32:00,30.0,-99.9,-100.00,NE,40,28.0,30.0,-999,-99.99,,,-99.99,,2013-03-16 13:32:00,
2013-03-16 09:43:00,30.0,-99.9,-100.00,NE,40,28.0,30.0,-999,-99.99,,,-99.99,,2013-03-16 13:43:00,
2013-03-16 10:12:00,31.0,-99.9,-100.00,NE,40,25.0,31.0,-999,-99.99,,,-99.99,,2013-03-16 14:12:00,
2013-03-16 10:22:00,31.0,-99.9,-100.00,NE,40,25.0,31.0,-999,-99.99,,,-99.99,,2013-03-16 14:22:00,
2013-03-16 10:32:00,31.0,-99.9,-100.00,NE,40,25.0,31.0,-999,-99.99,,,-99.99,,2013-03-16 14:32:00,
2013-03-16 10:42:00,31.0,-99.9,-100.00,NE,40,25.0,31.0,-999,-99.99,,,-99.99,,2013-03-16 14:42:00,
2013-03-16 11:13:00,31.0,-99.9,-100.00,NNE,20,24.0,29.0,-999,-99.99,,,-99.99,,2013-03-16 15:13:00,
2013-03-16 11:23:00,31.0,-99.9,-100.00,NNE,20,24.0,29.0,-999,-99.99,,,-99.99,,2013-03-16 15:23:00,
2013-03-16 11:33:00,31.0,-99.9,-100.00,NNE,20,24.0,29.0,-999,-99.99,,,-99.99,,2013-03-16 15:33:00,
2013-03-16 11:44:00,31.0,-99.9,-100.00,NNE,20,24.0,29.0,-999,-99.99,,,-99.99,,2013-03-16 15:44:00,
2013-03-16 12:13:00,30.0,-99.9,-100.00,North,360,20.0,23.0,-999,-99.99,,,-99.99,,2013-03-16 16:13:00,
2013-03-16 12:23:00,30.0,-99.9,-100.00,North,360,20.0,23.0,-999,-99.99,,,-99.99,,2013-03-16 16:23:00,
2013-03-16 12:33:00,30.0,-99.9,-100.00,North,360,20.0,23.0,-999,-99.99,,,-99.99,,2013-03-16 16:33:00,
2013-03-16 12:43:00,30.0,-99.9,-100.00,North,360,20.0,23.0,-999,-99.99,,,-99.99,,2013-03-16 16:43:00,
2013-03-16 13:13:00,29.0,-99.9,-100.00,North,360,9.0,11.0,-999,-99.99,,,-99.99,,2013-03-16 17:13:00,
2013-03-16 13:23:00,29.0,-99.9,-100.00,North,360,9.0,11.0,-999,-99.99,,,-99.99,,2013-03-16 17:23:00,
2013-03-16 13:33:00,29.0,-99.9,-100.00,North,360,9.0,11.0,-999,-99.99,,,-99.99,,2013-03-16 17:33:00,
2013-03-16 13:43:00,29.0,-99.9,-100.00,North,360,9.0,11.0,-999,-99.99,,,-99.99,,2013-03-16 17:43:00,
2013-03-16 14:13:00,29.0,-99.9,-100.00,North,350,10.0,13.0,-999,-99.99,,,-99.99,,2013-03-16 18:13:00,
2013-03-16 14:23:00,29.0,-99.9,-100.00,North,350,10.0,13.0,-999,-99.99,,,-99.99,,2013-03-16 18:23:00,
2013-03-16 14:33:00,29.0,-99.9,-100.00,North,350,10.0,13.0,-999,-99.99,,,-99.99,,2013-03-16 18:33:00,
2013-03-16 14:43:00,29.0,-99.9,-100.00,North,350,10.0,13.0,-999,-99.99,,,-99.99,,2013-03-16 18:43:00,
2013-03-16 15:12:00,29.0,-99.9,-100.00,North,350,10.0,13.0,-999,-99.99,,,-99.99,,2013-03-16 19:12:00,
2013-03-16 15:23:00,29.0,-99.9,-100.00,North,350,10.0,13.0,-999,-99.99,,,-99.99,,2013-03-16 19:23:00,
2013-03-16 15:33:00,29.0,-99.9,-100.00,North,350,10.0,13.0,-999,-99.99,,,-99.99,,2013-03-16 19:33:00,
2013-03-16 15:42:00,29.0,-99.9,-100.00,North,350,10.0,13.0,-999,-99.99,,,-99.99,,2013-03-16 19:42:00,
2013-03-16 16:13:00,30.0,-99.9,-100.00,North,350,7.0,9.0,-999,-99.99,,,-99.99,,2013-03-16 20:13:00,
2013-03-16 16:22:00,30.0,-99.9,-100.00,North,350,7.0,9.0,-999,-99.99,,,-99.99,,2013-03-16 20:22:00,
2013-03-16 16:33:00,30.0,-99.9,-100.00,North,350,7.0,9.0,-999,-99.99,,,-99.99,,2013-03-16 20:33:00,
2013-03-16 16:43:00,30.0,-99.9,-100.00,North,350,7.0,9.0,-999,-99.99,,,-99.99,,2013-03-16 20:43:00,
2013-03-16 17:12:00,30.0,-99.9,-100.00,NNW,340,7.0,7.0,-999,-99.99,,,-99.99,,2013-03-16 21:12:00,
2013-03-16 17:33:00,30.0,-99.9,-100.00,NNW,340,7.0,7.0,-999,-99.99,,,-99.99,,2013-03-16 21:33:00,
2013-03-16 17:43:00,30.0,-99.9,-100.00,NNW,340,7.0,7.0,-999,-99.99,,,-99.99,,2013-03-16 21:43:00,
2013-03-16 18:13:00,31.0,-99.9,-100.00,WNW,300,3.0,5.0,-999,-99.99,,,-99.99,,2013-03-16 22:13:00,
2013-03-16 18:23:00,31.0,-99.9,-100.00,WNW,300,3.0,5.0,-999,-99.99,,,-99.99,,2013-03-16 22:23:00,
2013-03-16 18:33:00,31.0,-99.9,-100.00,WNW,300,3.0,5.0,-999,-99.99,,,-99.99,,2013-03-16 22:33:00,
2013-03-16 18:43:00,31.0,-99.9,-100.00,WNW,300,3.0,5.0,-999,-99.99,,,-99.99,,2013-03-16 22:43:00,
2013-03-16 19:13:00,31.0,-99.9,-100.00,WNW,300,2.0,3.0,-999,-99.99,,,-99.99,,2013-03-16 23:13:00,
2013-03-16 19:23:00,31.0,-99.9,-100.00,WNW,300,2.0,3.0,-999,-99.99,,,-99.99,,2013-03-16 23:23:00,
2013-03-16 19:33:00,31.0,-99.9,-100.00,WNW,300,2.0,3.0,-999,-99.99,,,-99.99,,2013-03-16 23:33:00,
2013-03-16 19:43:00,31.0,-99.9,-100.00,WNW,300,2.0,3.0,-999,-99.99,,,-99.99,,2013-03-16 23:43:00,
2013-03-16 20:13:00,32.0,-99.9,-100.00,West,260,5.0,5.0,-999,-99.99,,,-99.99,,2013-03-17 00:13:00,
2013-03-16 20:23:00,32.0,-99.9,-100.00,West,260,5.0,5.0,-999,-99.99,,,-99.99,,2013-03-17 00:23:00,
2013-03-16 20:33:00,32.0,-99.9,-100.00,West,260,5.0,5.0,-999,-99.99,,,-99.99,,2013-03-17 00:33:00,
2013-03-16 20:43:00,32.0,-99.9,-100.00,West,260,5.0,5.0,-999,-99.99,,,-99.99,,2013-03-17 00:43:00,
2013-03-16 21:12:00,32.0,-99.9,-100.00,West,270,7.0,8.0,-999,-99.99,,,-99.99,,2013-03-17 01:12:00,
2013-03-16 21:23:00,32.0,-99.9,-100.00,West,270,7.0,8.0,-999,-99.99,,,-99.99,,2013-03-17 01:23:00,
2013-03-16 21:33:00,32.0,-99.9,-100.00,West,270,7.0,8.0,-999,-99.99,,,-99.99,,2013-03-17 01:33:00,
2013-03-16 21:43:00,32.0,-99.9,-100.00,West,270,7.0,8.0,-999,-99.99,,,-99.99,,2013-03-17 01:43:00,
2013-03-16 22:13:00,32.0,-99.9,-100.00,West,280,10.0,13.0,-999,-99.99,,,-99.99,,2013-03-17 02:13:00,
2013-03-16 22:23:00,32.0,-99.9,-100.00,West,280,10.0,13.0,-999,-99.99,,,-99.99,,2013-03-17 02:23:00,
2013-03-16 22:33:00,32.0,-99.9,-100.00,West,280,10.0,13.0,-999,-99.99,,,-99.99,,2013-03-17 02:33:00,
2013-03-16 22:43:00,32.0,-99.9,-100.00,West,280,10.0,13.0,-999,-99.99,,,-99.99,,2013-03-17 02:43:00,
2013-03-16 23:12:00,31.0,-99.9,-100.00,NW,310,11.0,13.0,-999,-99.99,,,-99.99,,2013-03-17 03:12:00,
2013-03-16 23:23:00,31.0,-99.9,-100.00,NW,310,11.0,13.0,-999,-99.99,,,-99.99,,2013-03-17 03:23:00,
2013-03-16 23:34:00,31.0,-99.9,-100.00,NW,310,11.0,13.0,-999,-99.99,,,-99.99,,2013-03-17 03:34:00,
2013-03-16 23:43:00,31.0,-99.9,-100.00,NW,310,11.0,13.0,-999,-99.99,,,-99.99,,2013-03-17 03:43:00,